Accomac, Virginia
Current Conditions -  °F | °C
As of 10:54 AM on Thursday 18 Dec 2014 (Local Time) from KWAL Reporting Station
Scattered Clouds Scattered Clouds  
Wind Chill: 32°   Ceiling: Unl
Heat Index: 40°   Visibility: 10mi
Dew Point: 24°   Wind: 14mph
Humidity: 53%   Direction: 340°NNW
Pressure: 30.14"   Gusts: NA
Location:  37.72°N, 75.67°W
Report Text: KWAL 181554Z 34012KT 10SM FEW040 SCT250 04/M04 A3014 RMK AO2 SLP203 T00441044
Loading
Personal Weather Stations






























Interactive Weather Map New forecast layout! Learn more

10-Day Weather Forecast

Advertisements
Track Severe Weather on mobile